Pagina principale
METAR-TAF:

METAR-TAF

Aeroporti :

Hoedspruit, Sudafrica

latitudine: 24-21-17S, longitudine: 31-03-01E, altezza: 531 m

Osservazione

Il bollettino è stato emesso 43 minuti fa, alle 17:00 UTC
Vento 4 kt da est
Temperature 22°C
Umidità 73%
Pressione 1026 hPa

METAR: FAHS 311700Z AUTO 08004KT //// // ////// 22/17 Q1026

Ora: 19:43 (17:43 UTC)

Previsione

Il bollettino è stato emesso 8 ore e 43 minuti fa, alle 09:00 UTC
Previsione valida dal 31 alle 10 UTC al 31 alle 18 UTC
Vento 3 kt da direzioni variabili
Visibilità 10 km o più
nessuna nube inferiore a 1500 m e nessun cumulonembo

TAF: FAHS 310900Z 3110/3118 VRB03KT CAVOK TX27/3113Z TN14/3118Z

Osservazioni e previsioni meteorologiche di più di 4000 aeroporti (messaggi METAR e TAF).

Le stazioni disponibili sono rappresentate dai dischi gialli e rossi sulla carta.

Puntare il mouse per vedere il nome della stazione.

Clicca sopra per visualizzare le osservazioni e previsioni meteorologiche.

Per cambiare la mappa : fare clic sui pulsanti verdi con una croce nera per ingrandire, il pulsante verde con un trattino per diminuire, o sulla freccia verde per le mappe adiacenti.


METAR-TAF: